sensor_id;sensor_type;location;lat;lon;timestamp;P1;durP1;ratioP1;P2;durP2;ratioP2
4268;SDS011;2148;48.554;7.834;2022-07-19T00:01:16;2.90;;;2.60;;
4268;SDS011;2148;48.554;7.834;2022-07-19T00:03:41;5.27;;;2.67;;
4268;SDS011;2148;48.554;7.834;2022-07-19T00:06:06;7.93;;;2.97;;
4268;SDS011;2148;48.554;7.834;2022-07-19T00:08:31;4.30;;;2.40;;
4268;SDS011;2148;48.554;7.834;2022-07-19T00:10:57;4.70;;;2.93;;
4268;SDS011;2148;48.554;7.834;2022-07-19T00:13:22;6.30;;;3.40;;
4268;SDS011;2148;48.554;7.834;2022-07-19T00:15:48;4.27;;;3.00;;
4268;SDS011;2148;48.554;7.834;2022-07-19T00:18:14;4.93;;;3.03;;
4268;SDS011;2148;48.554;7.834;2022-07-19T00:20:39;3.87;;;2.90;;
4268;SDS011;2148;48.554;7.834;2022-07-19T00:23:05;4.15;;;3.10;;
4268;SDS011;2148;48.554;7.834;2022-07-19T00:25:30;3.27;;;2.70;;
4268;SDS011;2148;48.554;7.834;2022-07-19T00:27:55;3.97;;;2.83;;
4268;SDS011;2148;48.554;7.834;2022-07-19T00:30:20;3.57;;;2.70;;
4268;SDS011;2148;48.554;7.834;2022-07-19T00:32:45;3.03;;;2.72;;
4268;SDS011;2148;48.554;7.834;2022-07-19T00:35:11;4.57;;;2.50;;
4268;SDS011;2148;48.554;7.834;2022-07-19T00:37:36;4.70;;;2.87;;
4268;SDS011;2148;48.554;7.834;2022-07-19T00:40:02;4.80;;;2.80;;
4268;SDS011;2148;48.554;7.834;2022-07-19T00:42:27;3.50;;;2.80;;
4268;SDS011;2148;48.554;7.834;2022-07-19T00:44:53;3.00;;;2.70;;
4268;SDS011;2148;48.554;7.834;2022-07-19T00:47:18;3.20;;;2.80;;
4268;SDS011;2148;48.554;7.834;2022-07-19T00:49:44;4.93;;;2.90;;
4268;SDS011;2148;48.554;7.834;2022-07-19T00:52:10;5.10;;;2.87;;
4268;SDS011;2148;48.554;7.834;2022-07-19T00:54:35;3.90;;;2.90;;
4268;SDS011;2148;48.554;7.834;2022-07-19T00:57:03;5.17;;;3.07;;
4268;SDS011;2148;48.554;7.834;2022-07-19T00:59:29;4.63;;;3.00;;
4268;SDS011;2148;48.554;7.834;2022-07-19T01:01:56;4.90;;;2.87;;
4268;SDS011;2148;48.554;7.834;2022-07-19T01:04:23;5.23;;;3.17;;
4268;SDS011;2148;48.554;7.834;2022-07-19T01:06:48;3.53;;;2.70;;
4268;SDS011;2148;48.554;7.834;2022-07-19T01:09:14;5.23;;;2.70;;
4268;SDS011;2148;48.554;7.834;2022-07-19T01:11:39;3.27;;;2.70;;
4268;SDS011;2148;48.554;7.834;2022-07-19T01:14:05;5.37;;;2.97;;
4268;SDS011;2148;48.554;7.834;2022-07-19T01:16:30;4.70;;;2.70;;
4268;SDS011;2148;48.554;7.834;2022-07-19T01:18:55;3.57;;;3.00;;
4268;SDS011;2148;48.554;7.834;2022-07-19T01:21:21;3.23;;;2.80;;
4268;SDS011;2148;48.554;7.834;2022-07-19T01:23:51;5.80;;;3.00;;
4268;SDS011;2148;48.554;7.834;2022-07-19T01:26:16;3.73;;;2.93;;
4268;SDS011;2148;48.554;7.834;2022-07-19T01:28:42;4.80;;;3.10;;
4268;SDS011;2148;48.554;7.834;2022-07-19T01:31:08;5.10;;;2.90;;
4268;SDS011;2148;48.554;7.834;2022-07-19T01:33:38;4.20;;;2.73;;
4268;SDS011;2148;48.554;7.834;2022-07-19T01:36:07;3.13;;;2.80;;
4268;SDS011;2148;48.554;7.834;2022-07-19T01:38:32;4.00;;;2.90;;
4268;SDS011;2148;48.554;7.834;2022-07-19T01:40:58;4.13;;;2.90;;
4268;SDS011;2148;48.554;7.834;2022-07-19T01:43:23;4.37;;;3.30;;
4268;SDS011;2148;48.554;7.834;2022-07-19T01:45:49;3.27;;;2.87;;
4268;SDS011;2148;48.554;7.834;2022-07-19T01:48:14;5.03;;;2.90;;
4268;SDS011;2148;48.554;7.834;2022-07-19T01:50:40;6.17;;;3.13;;
4268;SDS011;2148;48.554;7.834;2022-07-19T01:53:05;4.33;;;2.83;;
4268;SDS011;2148;48.554;7.834;2022-07-19T01:55:30;6.27;;;2.90;;
4268;SDS011;2148;48.554;7.834;2022-07-19T01:57:55;4.47;;;3.23;;
4268;SDS011;2148;48.554;7.834;2022-07-19T02:00:21;5.33;;;3.10;;
4268;SDS011;2148;48.554;7.834;2022-07-19T02:02:46;3.00;;;2.70;;
4268;SDS011;2148;48.554;7.834;2022-07-19T02:05:11;5.47;;;2.90;;
4268;SDS011;2148;48.554;7.834;2022-07-19T02:07:36;5.83;;;2.93;;
4268;SDS011;2148;48.554;7.834;2022-07-19T02:10:03;6.83;;;3.77;;
4268;SDS011;2148;48.554;7.834;2022-07-19T02:12:29;4.87;;;3.30;;
4268;SDS011;2148;48.554;7.834;2022-07-19T02:14:55;3.90;;;2.87;;
4268;SDS011;2148;48.554;7.834;2022-07-19T02:17:21;7.23;;;3.50;;
4268;SDS011;2148;48.554;7.834;2022-07-19T02:19:46;3.23;;;2.93;;
4268;SDS011;2148;48.554;7.834;2022-07-19T02:22:11;4.40;;;3.20;;
4268;SDS011;2148;48.554;7.834;2022-07-19T02:24:36;6.93;;;3.20;;
4268;SDS011;2148;48.554;7.834;2022-07-19T02:27:01;3.90;;;2.97;;
4268;SDS011;2148;48.554;7.834;2022-07-19T02:29:27;4.90;;;3.20;;
4268;SDS011;2148;48.554;7.834;2022-07-19T02:31:52;4.40;;;2.93;;
4268;SDS011;2148;48.554;7.834;2022-07-19T02:34:17;3.93;;;3.00;;
4268;SDS011;2148;48.554;7.834;2022-07-19T02:36:42;5.50;;;3.23;;
4268;SDS011;2148;48.554;7.834;2022-07-19T02:39:08;4.30;;;3.33;;
4268;SDS011;2148;48.554;7.834;2022-07-19T02:41:34;5.50;;;3.63;;
4268;SDS011;2148;48.554;7.834;2022-07-19T02:43:59;4.20;;;3.27;;
4268;SDS011;2148;48.554;7.834;2022-07-19T02:46:24;3.70;;;3.17;;
4268;SDS011;2148;48.554;7.834;2022-07-19T02:48:49;5.57;;;3.10;;
4268;SDS011;2148;48.554;7.834;2022-07-19T02:51:15;4.23;;;3.20;;
4268;SDS011;2148;48.554;7.834;2022-07-19T02:53:40;4.97;;;3.20;;
4268;SDS011;2148;48.554;7.834;2022-07-19T02:56:05;3.53;;;3.23;;
4268;SDS011;2148;48.554;7.834;2022-07-19T02:58:30;5.27;;;3.43;;
4268;SDS011;2148;48.554;7.834;2022-07-19T03:00:56;5.00;;;3.37;;
4268;SDS011;2148;48.554;7.834;2022-07-19T03:03:21;3.17;;;2.87;;
4268;SDS011;2148;48.554;7.834;2022-07-19T03:06:05;4.00;;;3.20;;
4268;SDS011;2148;48.554;7.834;2022-07-19T03:08:30;6.13;;;3.40;;
4268;SDS011;2148;48.554;7.834;2022-07-19T03:10:55;4.40;;;3.23;;
4268;SDS011;2148;48.554;7.834;2022-07-19T03:13:21;5.00;;;3.77;;
4268;SDS011;2148;48.554;7.834;2022-07-19T03:15:46;4.23;;;3.57;;
4268;SDS011;2148;48.554;7.834;2022-07-19T03:18:11;4.27;;;3.13;;
4268;SDS011;2148;48.554;7.834;2022-07-19T03:20:36;5.37;;;3.30;;
4268;SDS011;2148;48.554;7.834;2022-07-19T03:23:02;3.10;;;2.80;;
4268;SDS011;2148;48.554;7.834;2022-07-19T03:25:27;3.87;;;3.47;;
4268;SDS011;2148;48.554;7.834;2022-07-19T03:27:52;4.13;;;3.30;;
4268;SDS011;2148;48.554;7.834;2022-07-19T03:30:18;4.70;;;3.30;;
4268;SDS011;2148;48.554;7.834;2022-07-19T03:32:43;4.07;;;3.40;;
4268;SDS011;2148;48.554;7.834;2022-07-19T03:35:08;7.03;;;3.30;;
4268;SDS011;2148;48.554;7.834;2022-07-19T03:37:34;3.73;;;3.30;;
4268;SDS011;2148;48.554;7.834;2022-07-19T03:39:59;3.40;;;3.00;;
4268;SDS011;2148;48.554;7.834;2022-07-19T03:42:24;4.03;;;2.97;;
4268;SDS011;2148;48.554;7.834;2022-07-19T03:44:50;3.83;;;3.50;;
4268;SDS011;2148;48.554;7.834;2022-07-19T03:47:15;5.43;;;3.90;;
4268;SDS011;2148;48.554;7.834;2022-07-19T03:49:40;4.40;;;3.20;;
4268;SDS011;2148;48.554;7.834;2022-07-19T03:52:05;6.87;;;3.60;;
4268;SDS011;2148;48.554;7.834;2022-07-19T03:54:31;3.80;;;3.13;;
4268;SDS011;2148;48.554;7.834;2022-07-19T03:56:56;4.70;;;3.33;;
4268;SDS011;2148;48.554;7.834;2022-07-19T03:59:21;5.07;;;3.30;;
4268;SDS011;2148;48.554;7.834;2022-07-19T04:01:48;5.43;;;3.20;;
4268;SDS011;2148;48.554;7.834;2022-07-19T04:04:13;4.87;;;3.47;;
4268;SDS011;2148;48.554;7.834;2022-07-19T04:06:39;6.17;;;3.50;;
4268;SDS011;2148;48.554;7.834;2022-07-19T04:09:04;4.23;;;3.70;;
4268;SDS011;2148;48.554;7.834;2022-07-19T04:11:29;6.27;;;3.67;;
4268;SDS011;2148;48.554;7.834;2022-07-19T04:13:54;4.83;;;3.63;;
4268;SDS011;2148;48.554;7.834;2022-07-19T04:16:20;4.43;;;3.47;;
4268;SDS011;2148;48.554;7.834;2022-07-19T04:18:45;4.43;;;3.30;;
4268;SDS011;2148;48.554;7.834;2022-07-19T04:21:10;4.47;;;3.47;;
4268;SDS011;2148;48.554;7.834;2022-07-19T04:23:35;7.37;;;3.90;;
4268;SDS011;2148;48.554;7.834;2022-07-19T04:26:00;6.67;;;3.67;;
4268;SDS011;2148;48.554;7.834;2022-07-19T04:28:26;4.70;;;3.30;;
4268;SDS011;2148;48.554;7.834;2022-07-19T04:30:51;4.73;;;3.80;;
4268;SDS011;2148;48.554;7.834;2022-07-19T04:33:17;5.43;;;3.57;;
4268;SDS011;2148;48.554;7.834;2022-07-19T04:35:43;5.90;;;3.90;;
4268;SDS011;2148;48.554;7.834;2022-07-19T04:38:09;6.27;;;4.03;;
4268;SDS011;2148;48.554;7.834;2022-07-19T04:40:34;4.10;;;3.50;;
4268;SDS011;2148;48.554;7.834;2022-07-19T04:43:00;5.37;;;3.40;;
4268;SDS011;2148;48.554;7.834;2022-07-19T04:45:25;6.37;;;3.93;;
4268;SDS011;2148;48.554;7.834;2022-07-19T04:47:50;5.40;;;3.63;;
4268;SDS011;2148;48.554;7.834;2022-07-19T04:50:16;6.27;;;3.40;;
4268;SDS011;2148;48.554;7.834;2022-07-19T04:52:41;6.50;;;3.57;;
4268;SDS011;2148;48.554;7.834;2022-07-19T04:55:06;5.87;;;3.67;;
4268;SDS011;2148;48.554;7.834;2022-07-19T04:57:32;4.97;;;3.60;;
4268;SDS011;2148;48.554;7.834;2022-07-19T04:59:57;5.53;;;3.83;;
4268;SDS011;2148;48.554;7.834;2022-07-19T05:02:23;3.90;;;3.50;;
4268;SDS011;2148;48.554;7.834;2022-07-19T05:04:48;3.67;;;3.37;;
4268;SDS011;2148;48.554;7.834;2022-07-19T05:07:13;5.33;;;3.30;;
4268;SDS011;2148;48.554;7.834;2022-07-19T05:09:39;5.17;;;3.60;;
4268;SDS011;2148;48.554;7.834;2022-07-19T05:12:04;4.27;;;3.87;;
4268;SDS011;2148;48.554;7.834;2022-07-19T05:14:32;5.47;;;3.67;;
4268;SDS011;2148;48.554;7.834;2022-07-19T05:16:57;6.97;;;3.50;;
4268;SDS011;2148;48.554;7.834;2022-07-19T05:19:23;5.73;;;3.90;;
4268;SDS011;2148;48.554;7.834;2022-07-19T05:21:48;5.17;;;3.77;;
4268;SDS011;2148;48.554;7.834;2022-07-19T05:24:13;7.20;;;3.70;;
4268;SDS011;2148;48.554;7.834;2022-07-19T05:26:39;5.63;;;3.70;;
4268;SDS011;2148;48.554;7.834;2022-07-19T05:29:05;4.27;;;3.77;;
4268;SDS011;2148;48.554;7.834;2022-07-19T05:31:30;6.43;;;3.50;;
4268;SDS011;2148;48.554;7.834;2022-07-19T05:33:55;6.37;;;3.90;;
4268;SDS011;2148;48.554;7.834;2022-07-19T05:36:20;5.03;;;4.03;;
4268;SDS011;2148;48.554;7.834;2022-07-19T05:38:46;5.50;;;4.37;;
4268;SDS011;2148;48.554;7.834;2022-07-19T05:41:11;5.80;;;4.30;;
4268;SDS011;2148;48.554;7.834;2022-07-19T05:43:37;6.30;;;3.50;;
4268;SDS011;2148;48.554;7.834;2022-07-19T05:46:04;5.23;;;3.90;;
4268;SDS011;2148;48.554;7.834;2022-07-19T05:48:29;4.80;;;3.63;;
4268;SDS011;2148;48.554;7.834;2022-07-19T05:50:56;4.50;;;3.57;;
4268;SDS011;2148;48.554;7.834;2022-07-19T05:53:21;5.83;;;3.80;;
4268;SDS011;2148;48.554;7.834;2022-07-19T05:55:47;4.77;;;3.83;;
4268;SDS011;2148;48.554;7.834;2022-07-19T05:58:12;4.73;;;3.30;;
4268;SDS011;2148;48.554;7.834;2022-07-19T06:00:37;4.30;;;3.50;;
4268;SDS011;2148;48.554;7.834;2022-07-19T06:03:03;5.83;;;3.67;;
4268;SDS011;2148;48.554;7.834;2022-07-19T06:05:28;3.90;;;3.50;;
4268;SDS011;2148;48.554;7.834;2022-07-19T06:07:54;4.67;;;3.70;;
4268;SDS011;2148;48.554;7.834;2022-07-19T06:10:19;5.97;;;3.70;;
4268;SDS011;2148;48.554;7.834;2022-07-19T06:12:44;4.40;;;3.40;;
4268;SDS011;2148;48.554;7.834;2022-07-19T06:15:10;3.77;;;3.40;;
4268;SDS011;2148;48.554;7.834;2022-07-19T06:17:35;5.40;;;3.20;;
4268;SDS011;2148;48.554;7.834;2022-07-19T06:20:00;5.23;;;3.37;;
4268;SDS011;2148;48.554;7.834;2022-07-19T06:22:28;4.20;;;3.40;;
4268;SDS011;2148;48.554;7.834;2022-07-19T06:24:55;4.03;;;3.40;;
4268;SDS011;2148;48.554;7.834;2022-07-19T06:27:20;3.83;;;3.43;;
4268;SDS011;2148;48.554;7.834;2022-07-19T06:29:45;5.07;;;3.30;;
4268;SDS011;2148;48.554;7.834;2022-07-19T06:32:10;5.87;;;3.50;;
4268;SDS011;2148;48.554;7.834;2022-07-19T06:34:36;4.80;;;3.33;;
4268;SDS011;2148;48.554;7.834;2022-07-19T06:37:01;3.70;;;3.40;;
4268;SDS011;2148;48.554;7.834;2022-07-19T06:39:26;7.37;;;3.47;;
4268;SDS011;2148;48.554;7.834;2022-07-19T06:41:51;6.03;;;3.67;;
4268;SDS011;2148;48.554;7.834;2022-07-19T06:44:17;4.27;;;3.20;;
4268;SDS011;2148;48.554;7.834;2022-07-19T06:46:42;5.97;;;3.90;;
4268;SDS011;2148;48.554;7.834;2022-07-19T06:49:07;6.00;;;3.73;;
4268;SDS011;2148;48.554;7.834;2022-07-19T06:51:33;6.27;;;3.70;;
4268;SDS011;2148;48.554;7.834;2022-07-19T06:53:58;8.27;;;3.90;;
4268;SDS011;2148;48.554;7.834;2022-07-19T06:56:23;4.13;;;3.73;;
4268;SDS011;2148;48.554;7.834;2022-07-19T06:58:48;4.20;;;3.77;;
4268;SDS011;2148;48.554;7.834;2022-07-19T07:01:14;3.83;;;3.47;;
4268;SDS011;2148;48.554;7.834;2022-07-19T07:03:39;9.10;;;4.03;;
4268;SDS011;2148;48.554;7.834;2022-07-19T07:06:04;4.13;;;3.70;;
4268;SDS011;2148;48.554;7.834;2022-07-19T07:08:30;6.40;;;4.20;;
4268;SDS011;2148;48.554;7.834;2022-07-19T07:10:55;6.67;;;3.70;;
4268;SDS011;2148;48.554;7.834;2022-07-19T07:13:20;6.43;;;3.87;;
4268;SDS011;2148;48.554;7.834;2022-07-19T07:15:45;4.53;;;3.80;;
4268;SDS011;2148;48.554;7.834;2022-07-19T07:18:11;7.73;;;3.90;;
4268;SDS011;2148;48.554;7.834;2022-07-19T07:20:36;5.33;;;3.63;;
4268;SDS011;2148;48.554;7.834;2022-07-19T07:23:02;9.37;;;4.07;;
4268;SDS011;2148;48.554;7.834;2022-07-19T07:25:27;6.43;;;3.90;;
4268;SDS011;2148;48.554;7.834;2022-07-19T07:27:53;4.00;;;3.60;;
4268;SDS011;2148;48.554;7.834;2022-07-19T07:30:18;4.30;;;3.40;;
4268;SDS011;2148;48.554;7.834;2022-07-19T07:32:43;5.73;;;3.90;;
4268;SDS011;2148;48.554;7.834;2022-07-19T07:35:08;6.40;;;3.73;;
4268;SDS011;2148;48.554;7.834;2022-07-19T07:37:34;4.90;;;3.83;;
4268;SDS011;2148;48.554;7.834;2022-07-19T07:39:59;7.23;;;3.77;;
4268;SDS011;2148;48.554;7.834;2022-07-19T07:42:24;5.47;;;4.23;;
4268;SDS011;2148;48.554;7.834;2022-07-19T07:44:50;12.77;;;4.60;;
4268;SDS011;2148;48.554;7.834;2022-07-19T07:47:16;10.73;;;4.40;;
4268;SDS011;2148;48.554;7.834;2022-07-19T07:49:41;7.73;;;4.37;;
4268;SDS011;2148;48.554;7.834;2022-07-19T07:52:06;10.40;;;4.73;;
4268;SDS011;2148;48.554;7.834;2022-07-19T07:54:32;8.90;;;5.20;;
4268;SDS011;2148;48.554;7.834;2022-07-19T07:56:58;12.47;;;4.87;;
4268;SDS011;2148;48.554;7.834;2022-07-19T07:59:23;12.40;;;5.90;;
4268;SDS011;2148;48.554;7.834;2022-07-19T08:01:48;10.40;;;4.90;;
4268;SDS011;2148;48.554;7.834;2022-07-19T08:04:14;9.43;;;5.43;;
4268;SDS011;2148;48.554;7.834;2022-07-19T08:06:39;7.10;;;4.93;;
4268;SDS011;2148;48.554;7.834;2022-07-19T08:09:04;7.07;;;4.70;;
4268;SDS011;2148;48.554;7.834;2022-07-19T08:11:30;7.93;;;4.67;;
4268;SDS011;2148;48.554;7.834;2022-07-19T08:13:55;11.57;;;5.23;;
4268;SDS011;2148;48.554;7.834;2022-07-19T08:16:20;12.90;;;4.93;;
4268;SDS011;2148;48.554;7.834;2022-07-19T08:18:46;10.33;;;4.60;;
4268;SDS011;2148;48.554;7.834;2022-07-19T08:21:11;6.63;;;4.30;;
4268;SDS011;2148;48.554;7.834;2022-07-19T08:36:31;8.40;;;3.67;;
4268;SDS011;2148;48.554;7.834;2022-07-19T08:38:56;6.60;;;4.07;;
4268;SDS011;2148;48.554;7.834;2022-07-19T08:48:06;8.03;;;4.33;;
4268;SDS011;2148;48.554;7.834;2022-07-19T08:53:53;8.57;;;4.20;;
4268;SDS011;2148;48.554;7.834;2022-07-19T08:56:19;5.97;;;3.63;;
4268;SDS011;2148;48.554;7.834;2022-07-19T08:59:03;7.67;;;4.57;;
4268;SDS011;2148;48.554;7.834;2022-07-19T09:01:29;6.67;;;3.87;;
4268;SDS011;2148;48.554;7.834;2022-07-19T09:04:14;5.47;;;3.93;;
4268;SDS011;2148;48.554;7.834;2022-07-19T09:06:46;5.47;;;3.83;;
4268;SDS011;2148;48.554;7.834;2022-07-19T09:09:29;5.47;;;3.70;;
4268;SDS011;2148;48.554;7.834;2022-07-19T09:11:57;6.33;;;3.93;;
4268;SDS011;2148;48.554;7.834;2022-07-19T09:14:31;5.30;;;3.27;;
4268;SDS011;2148;48.554;7.834;2022-07-19T09:19:38;6.70;;;3.40;;
4268;SDS011;2148;48.554;7.834;2022-07-19T09:22:08;7.27;;;3.33;;
4268;SDS011;2148;48.554;7.834;2022-07-19T09:24:39;6.07;;;3.50;;
4268;SDS011;2148;48.554;7.834;2022-07-19T09:29:35;5.70;;;3.17;;
4268;SDS011;2148;48.554;7.834;2022-07-19T09:37:28;8.43;;;3.27;;
4268;SDS011;2148;48.554;7.834;2022-07-19T09:39:56;5.63;;;3.07;;
4268;SDS011;2148;48.554;7.834;2022-07-19T09:42:23;4.65;;;3.13;;
4268;SDS011;2148;48.554;7.834;2022-07-19T09:45:02;4.88;;;2.92;;
4268;SDS011;2148;48.554;7.834;2022-07-19T09:47:33;4.07;;;2.97;;
4268;SDS011;2148;48.554;7.834;2022-07-19T09:50:00;4.10;;;3.00;;
4268;SDS011;2148;48.554;7.834;2022-07-19T09:52:26;6.63;;;2.83;;
4268;SDS011;2148;48.554;7.834;2022-07-19T09:54:52;8.20;;;3.53;;
4268;SDS011;2148;48.554;7.834;2022-07-19T09:57:23;6.10;;;2.78;;
4268;SDS011;2148;48.554;7.834;2022-07-19T09:59:50;3.92;;;2.60;;
4268;SDS011;2148;48.554;7.834;2022-07-19T10:02:16;7.13;;;3.10;;
4268;SDS011;2148;48.554;7.834;2022-07-19T10:04:43;4.18;;;2.90;;
4268;SDS011;2148;48.554;7.834;2022-07-19T10:07:10;4.85;;;3.08;;
4268;SDS011;2148;48.554;7.834;2022-07-19T10:09:36;4.32;;;2.55;;
4268;SDS011;2148;48.554;7.834;2022-07-19T10:12:01;3.63;;;2.55;;
4268;SDS011;2148;48.554;7.834;2022-07-19T10:14:27;7.03;;;2.90;;
4268;SDS011;2148;48.554;7.834;2022-07-19T10:17:04;6.13;;;2.95;;
4268;SDS011;2148;48.554;7.834;2022-07-19T10:19:37;3.45;;;2.70;;
4268;SDS011;2148;48.554;7.834;2022-07-19T10:22:04;3.97;;;2.55;;
4268;SDS011;2148;48.554;7.834;2022-07-19T10:24:43;5.07;;;2.53;;
4268;SDS011;2148;48.554;7.834;2022-07-19T10:27:13;4.22;;;2.55;;
4268;SDS011;2148;48.554;7.834;2022-07-19T10:29:43;4.28;;;2.60;;
4268;SDS011;2148;48.554;7.834;2022-07-19T10:32:10;5.72;;;2.80;;
4268;SDS011;2148;48.554;7.834;2022-07-19T10:34:37;5.80;;;3.00;;
4268;SDS011;2148;48.554;7.834;2022-07-19T10:37:03;6.00;;;3.15;;
4268;SDS011;2148;48.554;7.834;2022-07-19T10:39:30;3.53;;;2.70;;
4268;SDS011;2148;48.554;7.834;2022-07-19T10:42:08;4.00;;;2.75;;
4268;SDS011;2148;48.554;7.834;2022-07-19T10:44:36;4.30;;;2.90;;
4268;SDS011;2148;48.554;7.834;2022-07-19T10:52:37;7.57;;;3.17;;
4268;SDS011;2148;48.554;7.834;2022-07-19T10:57:46;5.25;;;2.65;;
4268;SDS011;2148;48.554;7.834;2022-07-19T11:00:28;3.33;;;2.90;;
4268;SDS011;2148;48.554;7.834;2022-07-19T11:08:33;6.15;;;2.50;;
4268;SDS011;2148;48.554;7.834;2022-07-19T11:11:06;4.85;;;2.47;;
4268;SDS011;2148;48.554;7.834;2022-07-19T11:13:35;4.57;;;2.60;;
4268;SDS011;2148;48.554;7.834;2022-07-19T11:16:02;4.60;;;2.88;;
4268;SDS011;2148;48.554;7.834;2022-07-19T11:18:28;2.97;;;2.47;;
4268;SDS011;2148;48.554;7.834;2022-07-19T11:20:57;7.80;;;2.85;;
4268;SDS011;2148;48.554;7.834;2022-07-19T11:23:23;4.18;;;3.33;;
4268;SDS011;2148;48.554;7.834;2022-07-19T11:25:49;5.50;;;2.95;;
4268;SDS011;2148;48.554;7.834;2022-07-19T11:28:22;5.05;;;2.75;;
4268;SDS011;2148;48.554;7.834;2022-07-19T11:30:49;4.38;;;2.60;;
4268;SDS011;2148;48.554;7.834;2022-07-19T11:33:15;6.07;;;2.88;;
4268;SDS011;2148;48.554;7.834;2022-07-19T11:35:55;4.93;;;2.72;;
4268;SDS011;2148;48.554;7.834;2022-07-19T11:38:22;5.47;;;2.35;;
4268;SDS011;2148;48.554;7.834;2022-07-19T11:40:47;3.20;;;2.60;;
4268;SDS011;2148;48.554;7.834;2022-07-19T11:43:13;5.05;;;2.72;;
4268;SDS011;2148;48.554;7.834;2022-07-19T11:45:42;5.47;;;2.78;;
4268;SDS011;2148;48.554;7.834;2022-07-19T11:48:12;5.43;;;2.60;;
4268;SDS011;2148;48.554;7.834;2022-07-19T11:50:37;4.63;;;2.70;;
4268;SDS011;2148;48.554;7.834;2022-07-19T11:53:05;4.35;;;2.63;;
4268;SDS011;2148;48.554;7.834;2022-07-19T11:55:35;5.97;;;2.78;;
4268;SDS011;2148;48.554;7.834;2022-07-19T11:58:05;8.00;;;3.00;;
4268;SDS011;2148;48.554;7.834;2022-07-19T12:00:32;3.15;;;2.85;;
4268;SDS011;2148;48.554;7.834;2022-07-19T12:03:03;4.40;;;2.97;;
4268;SDS011;2148;48.554;7.834;2022-07-19T12:05:35;3.15;;;2.72;;
4268;SDS011;2148;48.554;7.834;2022-07-19T12:08:08;5.38;;;2.78;;
4268;SDS011;2148;48.554;7.834;2022-07-19T12:10:41;4.85;;;2.65;;
4268;SDS011;2148;48.554;7.834;2022-07-19T12:13:09;3.65;;;2.67;;
4268;SDS011;2148;48.554;7.834;2022-07-19T12:15:46;5.50;;;2.80;;
4268;SDS011;2148;48.554;7.834;2022-07-19T12:18:22;4.93;;;2.40;;
4268;SDS011;2148;48.554;7.834;2022-07-19T12:23:39;3.33;;;2.92;;
4268;SDS011;2148;48.554;7.834;2022-07-19T12:26:04;4.18;;;2.50;;
4268;SDS011;2148;48.554;7.834;2022-07-19T12:28:29;3.47;;;2.95;;
4268;SDS011;2148;48.554;7.834;2022-07-19T12:31:02;7.47;;;3.58;;
4268;SDS011;2148;48.554;7.834;2022-07-19T12:33:28;4.78;;;3.13;;
4268;SDS011;2148;48.554;7.834;2022-07-19T12:35:53;5.75;;;3.00;;
4268;SDS011;2148;48.554;7.834;2022-07-19T12:38:26;6.25;;;3.08;;
4268;SDS011;2148;48.554;7.834;2022-07-19T12:40:52;5.22;;;2.75;;
4268;SDS011;2148;48.554;7.834;2022-07-19T12:43:29;5.00;;;3.10;;
4268;SDS011;2148;48.554;7.834;2022-07-19T12:45:55;3.95;;;2.72;;
4268;SDS011;2148;48.554;7.834;2022-07-19T12:48:26;4.85;;;2.97;;
4268;SDS011;2148;48.554;7.834;2022-07-19T12:50:51;7.28;;;3.33;;
4268;SDS011;2148;48.554;7.834;2022-07-19T12:53:17;3.22;;;2.90;;
4268;SDS011;2148;48.554;7.834;2022-07-19T12:55:43;4.63;;;2.75;;
4268;SDS011;2148;48.554;7.834;2022-07-19T12:58:09;5.50;;;3.00;;
4268;SDS011;2148;48.554;7.834;2022-07-19T13:00:35;3.97;;;2.78;;
4268;SDS011;2148;48.554;7.834;2022-07-19T13:03:01;5.53;;;3.03;;
4268;SDS011;2148;48.554;7.834;2022-07-19T13:05:28;4.80;;;3.00;;
4268;SDS011;2148;48.554;7.834;2022-07-19T13:07:54;6.68;;;3.03;;
4268;SDS011;2148;48.554;7.834;2022-07-19T13:10:20;3.92;;;2.90;;
4268;SDS011;2148;48.554;7.834;2022-07-19T13:12:45;4.93;;;2.90;;
4268;SDS011;2148;48.554;7.834;2022-07-19T13:15:11;3.30;;;3.00;;
4268;SDS011;2148;48.554;7.834;2022-07-19T13:17:37;6.07;;;3.35;;
4268;SDS011;2148;48.554;7.834;2022-07-19T13:20:03;5.80;;;3.22;;
4268;SDS011;2148;48.554;7.834;2022-07-19T13:22:32;5.40;;;3.22;;
4268;SDS011;2148;48.554;7.834;2022-07-19T13:24:57;4.47;;;3.13;;
4268;SDS011;2148;48.554;7.834;2022-07-19T13:27:22;3.50;;;2.90;;
4268;SDS011;2148;48.554;7.834;2022-07-19T13:29:48;6.88;;;2.90;;
4268;SDS011;2148;48.554;7.834;2022-07-19T13:32:13;4.55;;;3.10;;
4268;SDS011;2148;48.554;7.834;2022-07-19T13:34:39;4.03;;;3.22;;
4268;SDS011;2148;48.554;7.834;2022-07-19T13:37:05;3.85;;;3.15;;
4268;SDS011;2148;48.554;7.834;2022-07-19T13:39:30;4.65;;;3.05;;
4268;SDS011;2148;48.554;7.834;2022-07-19T13:41:56;3.45;;;3.15;;
4268;SDS011;2148;48.554;7.834;2022-07-19T13:44:21;4.82;;;3.17;;
4268;SDS011;2148;48.554;7.834;2022-07-19T13:46:46;7.75;;;3.63;;
4268;SDS011;2148;48.554;7.834;2022-07-19T13:49:12;5.03;;;2.95;;
4268;SDS011;2148;48.554;7.834;2022-07-19T13:51:37;6.28;;;3.35;;
4268;SDS011;2148;48.554;7.834;2022-07-19T13:54:03;3.20;;;2.90;;
4268;SDS011;2148;48.554;7.834;2022-07-19T13:56:28;5.47;;;3.28;;
4268;SDS011;2148;48.554;7.834;2022-07-19T14:05:37;3.60;;;2.97;;
4268;SDS011;2148;48.554;7.834;2022-07-19T14:08:03;5.15;;;3.50;;
4268;SDS011;2148;48.554;7.834;2022-07-19T14:15:39;4.30;;;3.03;;
4268;SDS011;2148;48.554;7.834;2022-07-19T14:18:05;6.13;;;3.45;;
4268;SDS011;2148;48.554;7.834;2022-07-19T14:20:33;10.32;;;3.10;;
4268;SDS011;2148;48.554;7.834;2022-07-19T14:22:59;5.22;;;3.20;;
4268;SDS011;2148;48.554;7.834;2022-07-19T14:25:24;4.25;;;2.90;;
4268;SDS011;2148;48.554;7.834;2022-07-19T14:27:50;4.05;;;3.05;;
4268;SDS011;2148;48.554;7.834;2022-07-19T14:30:22;4.93;;;3.10;;
4268;SDS011;2148;48.554;7.834;2022-07-19T14:32:50;7.78;;;3.30;;
4268;SDS011;2148;48.554;7.834;2022-07-19T14:35:15;11.45;;;2.90;;
4268;SDS011;2148;48.554;7.834;2022-07-19T14:37:41;9.45;;;3.58;;
4268;SDS011;2148;48.554;7.834;2022-07-19T14:40:08;3.85;;;3.10;;
4268;SDS011;2148;48.554;7.834;2022-07-19T14:42:34;4.50;;;3.30;;
4268;SDS011;2148;48.554;7.834;2022-07-19T14:44:59;7.65;;;3.33;;
4268;SDS011;2148;48.554;7.834;2022-07-19T14:47:25;4.07;;;3.22;;
4268;SDS011;2148;48.554;7.834;2022-07-19T14:49:50;4.97;;;3.15;;
4268;SDS011;2148;48.554;7.834;2022-07-19T14:52:16;3.00;;;2.70;;
4268;SDS011;2148;48.554;7.834;2022-07-19T14:54:43;4.18;;;3.00;;
4268;SDS011;2148;48.554;7.834;2022-07-19T14:57:09;4.78;;;3.10;;
4268;SDS011;2148;48.554;7.834;2022-07-19T14:59:34;4.70;;;3.28;;
4268;SDS011;2148;48.554;7.834;2022-07-19T15:01:59;8.13;;;3.45;;
4268;SDS011;2148;48.554;7.834;2022-07-19T15:04:24;5.75;;;3.47;;
4268;SDS011;2148;48.554;7.834;2022-07-19T15:06:51;4.70;;;3.25;;
4268;SDS011;2148;48.554;7.834;2022-07-19T15:09:17;5.03;;;2.85;;
4268;SDS011;2148;48.554;7.834;2022-07-19T15:11:42;4.70;;;3.15;;
4268;SDS011;2148;48.554;7.834;2022-07-19T15:14:07;3.35;;;3.05;;
4268;SDS011;2148;48.554;7.834;2022-07-19T15:16:32;6.60;;;3.00;;
4268;SDS011;2148;48.554;7.834;2022-07-19T15:18:58;5.78;;;3.55;;
4268;SDS011;2148;48.554;7.834;2022-07-19T15:21:23;6.88;;;3.10;;
4268;SDS011;2148;48.554;7.834;2022-07-19T15:23:49;3.25;;;2.95;;
4268;SDS011;2148;48.554;7.834;2022-07-19T15:26:14;5.50;;;3.00;;
4268;SDS011;2148;48.554;7.834;2022-07-19T15:28:40;4.78;;;3.28;;
4268;SDS011;2148;48.554;7.834;2022-07-19T15:31:05;6.40;;;3.38;;
4268;SDS011;2148;48.554;7.834;2022-07-19T15:33:31;4.20;;;3.00;;
4268;SDS011;2148;48.554;7.834;2022-07-19T15:35:57;3.42;;;3.13;;
4268;SDS011;2148;48.554;7.834;2022-07-19T15:38:22;3.92;;;3.25;;
4268;SDS011;2148;48.554;7.834;2022-07-19T15:40:47;4.30;;;3.00;;
4268;SDS011;2148;48.554;7.834;2022-07-19T15:43:13;5.25;;;3.50;;
4268;SDS011;2148;48.554;7.834;2022-07-19T15:45:40;4.82;;;3.00;;
4268;SDS011;2148;48.554;7.834;2022-07-19T15:48:05;3.92;;;3.13;;
4268;SDS011;2148;48.554;7.834;2022-07-19T15:50:31;3.22;;;2.92;;
4268;SDS011;2148;48.554;7.834;2022-07-19T15:53:00;4.15;;;3.10;;
4268;SDS011;2148;48.554;7.834;2022-07-19T15:55:25;3.58;;;3.20;;
4268;SDS011;2148;48.554;7.834;2022-07-19T15:57:50;3.80;;;2.95;;
4268;SDS011;2148;48.554;7.834;2022-07-19T16:00:16;3.55;;;3.20;;
4268;SDS011;2148;48.554;7.834;2022-07-19T16:02:41;4.13;;;2.97;;
4268;SDS011;2148;48.554;7.834;2022-07-19T16:05:07;4.15;;;3.03;;
4268;SDS011;2148;48.554;7.834;2022-07-19T16:07:33;6.95;;;3.42;;
4268;SDS011;2148;48.554;7.834;2022-07-19T16:09:59;4.85;;;2.95;;
4268;SDS011;2148;48.554;7.834;2022-07-19T16:12:24;5.57;;;3.35;;